createdAt,value
2022-11-26T00:05:43.492Z,20.26
2022-11-26T00:12:31.122Z,20.32
2022-11-26T00:19:08.249Z,20.29
2022-11-26T00:25:56.422Z,20.43
2022-11-26T00:32:29.432Z,20.39
2022-11-26T00:39:06.280Z,20.33
2022-11-26T00:45:52.436Z,20.34
2022-11-26T00:52:19.930Z,20.67
2022-11-26T00:59:03.722Z,20.34
2022-11-26T01:05:34.440Z,20.25
2022-11-26T01:12:16.298Z,20.16
2022-11-26T01:18:51.249Z,20.14
2022-11-26T01:25:35.614Z,20.17
2022-11-26T01:32:09.965Z,20.16
2022-11-26T01:38:32.440Z,20.09
2022-11-26T01:45:23.384Z,20.02
2022-11-26T01:52:19.340Z,20.04
2022-11-26T01:59:17.201Z,20.16
2022-11-26T02:05:56.260Z,20.22
2022-11-26T02:12:34.781Z,20.24
2022-11-26T02:19:28.149Z,20.25
2022-11-26T02:26:32.586Z,20.23
2022-11-26T02:33:31.740Z,20.21
2022-11-26T02:40:35.189Z,20.25
2022-11-26T02:47:12.658Z,20.24
2022-11-26T02:53:52.601Z,20.25
2022-11-26T03:00:27.867Z,20.25
2022-11-26T03:07:24.769Z,20.18
2022-11-26T03:13:51.680Z,20.12
2022-11-26T03:20:18.334Z,20.12
2022-11-26T03:26:38.840Z,20.03
2022-11-26T03:33:11.142Z,20.03
2022-11-26T03:39:33.280Z,20.02
2022-11-26T03:46:08.234Z,20.08
2022-11-26T03:52:30.432Z,20.01
2022-11-26T03:58:52.275Z,20.09
2022-11-26T04:05:17.348Z,20.06
2022-11-26T04:11:39.567Z,20.05
2022-11-26T04:18:02.358Z,20.08
2022-11-26T04:24:26.321Z,20.04
2022-11-26T04:30:47.780Z,20.02
2022-11-26T04:37:11.172Z,20.07
2022-11-26T04:43:36.287Z,20.09
2022-11-26T04:50:12.289Z,20.09
2022-11-26T04:56:31.963Z,20.25
2022-11-26T05:03:00.426Z,20.12
2022-11-26T05:09:35.336Z,20.21
2022-11-26T05:16:03.253Z,21.13
2022-11-26T05:22:30.358Z,21.6
2022-11-26T05:28:57.260Z,22.03
2022-11-26T05:35:30.411Z,22.24
2022-11-26T05:41:53.819Z,22.3
2022-11-26T05:48:27.280Z,22.32
2022-11-26T05:54:56.647Z,21.61
2022-11-26T06:01:22.462Z,21.68
2022-11-26T06:07:49.410Z,21.37
2022-11-26T06:14:20.360Z,21.56
2022-11-26T06:20:44.693Z,21.56
2022-11-26T06:27:17.148Z,21.73
2022-11-26T06:33:52.422Z,21.71
2022-11-26T06:40:14.460Z,21.52
2022-11-26T06:46:47.409Z,21.41
2022-11-26T06:53:10.488Z,21.35
2022-11-26T06:59:30.476Z,21.3
2022-11-26T07:05:54.378Z,21.3
2022-11-26T07:12:19.263Z,21.32
2022-11-26T07:18:48.315Z,21.15
2022-11-26T07:25:17.453Z,21.14
2022-11-26T07:31:47.514Z,21.23
2022-11-26T07:38:22.483Z,21.26
2022-11-26T07:44:51.266Z,21.43
2022-11-26T07:51:14.455Z,21.49
2022-11-26T07:57:40.497Z,21.49
2022-11-26T08:04:08.866Z,21.49
2022-11-26T08:10:34.712Z,21.59
2022-11-26T08:16:59.754Z,21.65
2022-11-26T08:23:25.280Z,21.78
2022-11-26T08:29:51.991Z,21.81
2022-11-26T08:36:16.344Z,21.67
2022-11-26T08:42:37.176Z,21.66
2022-11-26T08:49:04.293Z,21.67
2022-11-26T08:55:46.657Z,21.54
2022-11-26T09:02:09.942Z,21.54
2022-11-26T09:08:44.905Z,21.43
2022-11-26T09:15:14.043Z,21.36
2022-11-26T09:21:42.795Z,21.28
2022-11-26T09:28:08.338Z,21.14
2022-11-26T09:34:33.417Z,21.23
2022-11-26T09:41:04.565Z,21.37
2022-11-26T09:48:04.446Z,21.32
2022-11-26T09:54:47.415Z,21.52
2022-11-26T10:01:48.484Z,21.52
2022-11-26T10:08:44.447Z,21.59
2022-11-26T10:15:36.631Z,21.54
2022-11-26T10:22:32.377Z,21.72
2022-11-26T10:29:19.983Z,21.7
2022-11-26T10:36:10.464Z,21.65
2022-11-26T10:42:53.668Z,21.65
2022-11-26T10:49:47.726Z,21.61
2022-11-26T10:56:37.764Z,21.57
2022-11-26T11:04:06.544Z,21.53
2022-11-26T11:10:33.769Z,21.38
2022-11-26T11:17:19.423Z,21.3
2022-11-26T11:24:14.948Z,21.25
2022-11-26T11:30:59.575Z,21.22
2022-11-26T11:37:49.559Z,21.34
2022-11-26T11:44:37.208Z,21.39
2022-11-26T11:51:54.556Z,21.54
2022-11-26T11:58:58.607Z,21.63
2022-11-26T12:06:18.822Z,21.65
2022-11-26T12:13:24.261Z,21.49
2022-11-26T12:20:35.566Z,21.58
2022-11-26T12:27:39.044Z,21.76
2022-11-26T12:34:48.492Z,21.67
2022-11-26T12:41:55.861Z,21.63
2022-11-26T12:49:11.555Z,21.68
2022-11-26T12:56:14.696Z,21.62
2022-11-26T13:03:13.588Z,21.51
2022-11-26T13:10:07.582Z,21.5
2022-11-26T13:17:16.508Z,21.29
2022-11-26T13:24:18.617Z,21.26
2022-11-26T13:31:22.757Z,21.2
2022-11-26T13:38:24.583Z,21.19
2022-11-26T13:45:19.689Z,21.33
2022-11-26T13:52:29.583Z,21.43
2022-11-26T13:59:28.976Z,21.43
2022-11-26T14:06:23.930Z,21.5
2022-11-26T14:12:56.458Z,21.47
2022-11-26T14:19:38.375Z,21.6
2022-11-26T14:26:18.785Z,21.92
2022-11-26T14:33:08.550Z,21.68
2022-11-26T14:39:45.530Z,21.77
2022-11-26T14:46:38.641Z,21.87
2022-11-26T14:53:31.858Z,21.78
2022-11-26T15:00:10.025Z,21.79
2022-11-26T15:06:52.688Z,21.61
2022-11-26T15:13:48.587Z,21.54
2022-11-26T15:20:32.258Z,21.44
2022-11-26T15:27:12.011Z,21.38
2022-11-26T15:34:10.731Z,21.37
2022-11-26T15:40:57.448Z,21.18
2022-11-26T15:47:54.391Z,21.23
2022-11-26T15:55:04.984Z,21.2
2022-11-26T16:01:57.943Z,21.16
2022-11-26T16:08:53.512Z,21.2
2022-11-26T16:15:37.972Z,21.04
2022-11-26T16:22:28.453Z,20.95
2022-11-26T16:29:21.670Z,20.94
2022-11-26T16:35:48.637Z,20.94
2022-11-26T16:42:30.150Z,20.93
2022-11-26T16:49:05.434Z,20.9
2022-11-26T16:55:35.171Z,20.85
2022-11-26T17:02:12.750Z,20.88
2022-11-26T17:08:52.612Z,20.91
2022-11-26T17:15:28.592Z,20.82
2022-11-26T17:22:05.515Z,20.8
2022-11-26T17:28:46.671Z,20.74
2022-11-26T17:35:23.174Z,20.73
2022-11-26T17:42:09.700Z,20.75
2022-11-26T17:48:59.554Z,20.74
2022-11-26T17:55:35.682Z,20.71
2022-11-26T18:02:04.889Z,20.75
2022-11-26T18:08:34.845Z,20.7
2022-11-26T18:15:03.699Z,20.65
2022-11-26T18:21:32.771Z,20.63
2022-11-26T18:28:08.852Z,20.64
2022-11-26T18:34:35.676Z,20.61
2022-11-26T18:41:00.648Z,20.54
2022-11-26T18:47:26.708Z,20.58
2022-11-26T18:53:53.678Z,20.53
2022-11-26T19:00:16.673Z,20.54
2022-11-26T19:06:41.746Z,20.45
2022-11-26T19:13:07.597Z,20.44
2022-11-26T19:19:32.876Z,20.42
2022-11-26T19:25:58.853Z,20.67
2022-11-26T19:32:26.202Z,20.51
2022-11-26T19:38:52.813Z,20.55
2022-11-26T19:45:27.596Z,20.44
2022-11-26T19:52:13.743Z,20.39
2022-11-26T19:58:44.696Z,20.36
2022-11-26T20:05:19.769Z,20.52
2022-11-26T20:11:53.726Z,20.39
2022-11-26T20:18:21.516Z,20.33
2022-11-26T20:24:52.873Z,20.31
2022-11-26T20:31:23.810Z,20.32
2022-11-26T20:38:00.593Z,20.3
2022-11-26T20:44:29.699Z,20.3
2022-11-26T20:50:58.872Z,20.3
2022-11-26T20:57:28.877Z,20.28
2022-11-26T21:04:03.133Z,20.2
2022-11-26T21:10:30.696Z,20.26
2022-11-26T21:17:04.206Z,20.24
2022-11-26T21:23:24.760Z,20.22
2022-11-26T21:29:57.762Z,20.23
2022-11-26T21:36:23.624Z,20.23
2022-11-26T21:42:46.923Z,20.25
2022-11-26T21:49:16.098Z,20.24
2022-11-26T21:55:41.718Z,20.19
2022-11-26T22:02:13.818Z,20.28
2022-11-26T22:08:39.745Z,20.19
2022-11-26T22:15:07.630Z,20.14
2022-11-26T22:21:32.776Z,20.15
2022-11-26T22:28:06.714Z,20.14
2022-11-26T22:34:40.092Z,20.13
2022-11-26T22:41:10.244Z,20.11
2022-11-26T22:47:35.983Z,20.1
2022-11-26T22:54:08.689Z,20.12
2022-11-26T23:00:34.801Z,20.08
2022-11-26T23:07:01.134Z,20.12
2022-11-26T23:13:27.654Z,20.1
2022-11-26T23:19:52.393Z,20.08
2022-11-26T23:26:26.340Z,20.08
2022-11-26T23:32:55.241Z,20.1
2022-11-26T23:39:17.177Z,20.07
2022-11-26T23:45:40.398Z,20.08
2022-11-26T23:52:12.676Z,20.08
2022-11-26T23:58:37.855Z,20.07
